NFTF/TBU METAR and TAF weather

Enter ICAO airport designator
Station Type Date Time Source
NFTF METAR 2022/01/27 06:00 UTC NOAA

NFTF 270600Z 08004KT 9999 FEW022 29/27 Q1010


Station Type Date Time Source
NFTF Decoded METAR 2022/01/27 06:00 UTC NOAA

Fua'Amotu, Tonga (NFTF) 21-14S 175-09W 41M
Jan 27, 2022 - 01:00 AM EST / 2022.01.27 0600 UTC
Wind: from the E (080 degrees) at 5 MPH (4 KT):0
Visibility: greater than 7 mile(s):0
Sky conditions: mostly clear
Temperature: 84 F (29 C)
Dew Point: 80 F (27 C)
Relative Humidity: 88%
Pressure (altimeter): 29.83 in. Hg (1010 hPa)
ob: NFTF 270600Z 08004KT 9999 FEW022 29/27 Q1010
cycle: 6

Station Type Date Time Source
NFTF TAF 2022/01/29 12:09 UTC NOAA

TAF TAF NFTF 291105Z 2912/3012 07007KT 9999 FEW020 PROB30
TEMPO 3006/3012 5000 TSRA BKN015 FEW018CB

Example: see airport list